AirNav   ProFlight Series 2 Aviation Headset
 
 582 users online  

KNRQ Spencer Naval Outlying Field
Pace, Florida, USA

GOING TO PACE?


FAA INFORMATION EFFECTIVE 18 JUNE 2020

Location

FAA Identifier: NRQ
Lat/Long: 30-37-00.0000N 087-08-00.0000W
30-37.000000N 087-08.000000W
30.6166667,-87.1333333
(estimated)
Elevation: 151 ft. / 46 m (estimated)
Variation: 00W (1995)
From city: 2 miles NE of PACE, FL
Time zone: UTC -5 (UTC -6 during Standard Time)
Zip code: 32571

Airport Operations

Airport use: Private use. Permission required prior to landing
Activation date: 08/2000
Control tower: no
ARTCC: JACKSONVILLE CENTER
FSS: GAINESVILLE FLIGHT SERVICE STATION
Attendance: MON-FRI 1415-0015Z++, ALL SAT-SUN CLSD, ALL HOLS CLSD
Segmented circle: no

Airport Communications

CTAF: 358.8
WX ASOS at NDZ (8 nm NE): PHONE 850-623-7210
WX ASOS at NSE (8 nm NE): PHONE 850-623-7241
WX ASOS at PNS (9 nm S): PHONE 850-436-4799

Nearby radio navigation aids

VOR radial/distance  VOR name  Freq  Var
NUNr049/(13.6)SAUFLEY VOR108.8001E
CEWr239/26.6CRESTVIEW VORTAC115.9003E

 
NDB name  Hdg/Dist  Freq  Var  ID
PICKENS014/11.032602WPKZ .--. -.- --..

Airport Services

Runway Information

Runway 4L/22R

Dimensions: 1800 x 150 ft. / 549 x 46 m
Surface: asphalt
Weight bearing capacity: 
PCN 9 /F/B/W/U
RUNWAY 4L  RUNWAY 22R
Traffic pattern: leftleft

Runway 4R/22L

Dimensions: 1800 x 150 ft. / 549 x 46 m
Surface: asphalt
Weight bearing capacity: 
PCN 9 /F/B/W/U
RUNWAY 4R  RUNWAY 22L
Traffic pattern: leftleft

Runway 9L/27R

Dimensions: 1800 x 150 ft. / 549 x 46 m
Surface: asphalt
Weight bearing capacity: 
PCN 9 /F/B/W/U
RUNWAY 9L  RUNWAY 27R
Traffic pattern: leftleft

Runway 9R/27L

Dimensions: 1800 x 150 ft. / 549 x 46 m
Surface: asphalt
RUNWAY 9R  RUNWAY 27L
Traffic pattern: leftleft

Runway 13L/31R

Dimensions: 1800 x 150 ft. / 549 x 46 m
Surface: asphalt
Weight bearing capacity: 
PCN 9 /F/B/W/U
RUNWAY 13L  RUNWAY 31R
Traffic pattern: leftleft

Runway 13R/31L

Dimensions: 1800 x 150 ft. / 549 x 46 m
Surface: asphalt
Weight bearing capacity: 
PCN 9 /F/B/W/U
RUNWAY 13R  RUNWAY 31L
Traffic pattern: leftleft

Runway 18L/36R

Dimensions: 1800 x 150 ft. / 549 x 46 m
Surface: asphalt
Weight bearing capacity: 
PCN 9 /F/B/W/U
RUNWAY 18L  RUNWAY 36R
Traffic pattern: leftleft

Runway 18R/36L

Dimensions: 1800 x 150 ft. / 549 x 46 m
Surface: asphalt
Weight bearing capacity: 
PCN 9 /F/B/W/U
RUNWAY 18R  RUNWAY 36L
Traffic pattern: leftleft

Airport Ownership and Management from official FAA records

Ownership: U.S. Navy
Owner: US NAVY
OCEANOGRAPHIC OFC - CODE 3142
WASHINGTON, DC 20373
Manager: US NAVY
OPERATIONS DUTY OFFICER, NAVAL AIR STATION WHITING FIELD
MILTON, FL 32570
Phone DSN-868-7475
C850-623-7475.

Additional Remarks

TRAWING 5 ACFT ONLY. PPR REQUIRED FOR ALL OTR ACFT. CLSD FLD OPR PROHIBITED WITH THE EXCEPTION OF LAS.
FOR CD CTC PENSACOLA APCH AT 850-266-6884 OR 850-266-6885.

Instrument Procedures

There are no published instrument procedures at KNRQ.

Some nearby airports with instrument procedures:

2R4 - Peter Prince Field Airport (7 nm E)
KNDZ - Whiting Field Naval Air Station South (8 nm NE)
KNSE - Whiting Field Naval Air Station North (8 nm NE)
KPNS - Pensacola International Airport (9 nm S)
KNPA - Pensacola Naval Air Station/Forrest Sherman Field (18 nm SW)
 
Loc | Ops | Rwys | IFR | FBO | Links
Com | Nav | Svcs | Stats | Notes

Continental Services
AirBoss

 
Area around KNRQ (Spencer Naval Outlying Field)
 
Road maps at: MapQuest Bing Google
 
Aerial photo
No photo
 
Sectional chart

 
Airport distance calculator
Flying to Spencer Naval Outlying Field? Find the distance to fly.

From to KNRQ

Sunrise and sunset
Times for 12-Jul-2020
 Local
(UTC-5)
 Zulu
(UTC)
Morning civil twilight05:2910:29
Sunrise05:5610:56
Sunset19:5200:52
Evening civil twilight20:1901:19

Current date and time
Zulu (UTC)  13-Jul-2020 04:33:58
Local (UTC-5)  12-Jul-2020 23:33:58
 
METAR
KNDZ 
8nm NE 
130416Z AUTO 29003KT 10SM -RA FEW007 FEW060 BKN110 23/22 A2993 RMK AO2 TSE10 P0001 T02330217 $
KPNS 
8nm S 
130421Z AUTO 28010KT 10SM -RA SCT009 SCT015 24/23 A2993 RMK AO2 LTG DSNT NE AND SE RAB01 P0000 T02440228 $
KNSE 
8nm NE 
120556Z AUTO 31004KT 10SM CLR 22/19 A2992 RMK AO2 SLP117 T02170194 10311 20217 403440217 58006 $
KNPA 
19nm SW 
130412Z AUTO 29009G16KT 260V330 10SM -TSRA BKN008 25/23 A2994 RMK AO2 RAB04 CIG 005V011 PRESRR P0000 T02500233
TAF
KPNS 
8nm S 
122329Z 1223/1318 35024G37KT 1 1/2SM HZ VCTS FEW020CB BKN050 TEMPO 1302/1304 3SM TSRA BKN028CB BKN100 FM130700 VRB03KT P6SM FEW035 SCT100 FM131500 29006KT P6SM FEW060 SCT100
KNSE 
8nm NE 
1223/1323 33007KT 9999 VCTS FEW030CB SCT070 BKN200 QNH2980INS TEMPO 1223/1304 VRB45G60KT 3200 TSRAGR SCT015 BKN030CB OVC070 FM130400 24008KT 9999 FEW050 FEW250 QNH2992INS AUTOMATED SENSOR METWATCH 1223 TIL 1310 T21/1308Z T33/1319Z FN00216
KNPA 
19nm SW 
1207/1307 VRB05KT 9999 SKC QNH2985INS FM121400 33005KT 9999 SKC QNH2984INS FM121800 21008KT 9999 FEW030 SCT250 QNH2979INS BECMG 1223/1301 24010KT 9999 VCSH SCT040 BKN070 BKN250 QNH2982INS TEMPO 1301/1307 8000 -SHRA SCT015 BKN030 OVC060 AUTOMATED SENSOR METWATCH 1207 TIL 1217 T26/1209Z T32/1219Z FN00216
NOTAMs
Click for the latest NOTAMs
NOTAMs are issued by the DoD/FAA and will open in a separate window not controlled by AirNav.

 

 
 

Would you like to see your business listed on this page?

 If your business provides an interesting product or service to pilots, flight crews, aircraft, or users of the Spencer Naval Outlying Field, you should consider listing it here.  To start the listing process, click on the button below
 
Add a business
 

Other Pages about Spencer Naval Outlying Field

Update a link
 
Copyright © AirNav, LLC. All rights reserved. Privacy Policy  Contact